Washington, District of Columbia
Traffic Map
Current Weather Conditions
Washington, District of Columbia
Few Clouds
Few Clouds
13°
Feels Like: 13°
Wind Chill: 13° Ceiling: Unl
Heat Index: 13° Visibility: 10mi
Dew Point: Wind: 21mph
Humidity: 45% Direction: 320° (NW)
Pressure: 29.69in Gusts: 29mph
Raw Report DataKDCA 230752Z 32018G25KT 10SM FEW250 13/01 A2969 RMK AO2 SLP054 T01280011
Traffic Incident Summary
Active as of:
Severity:
Category:
InformationThere was an issue retrieving the traffic information for this location. Please try a different location or try again shortly.
Advertisements
At Last! Intellicast now available for iPhone and Android